sensor_id;sensor_type;location;lat;lon;timestamp;P1;durP1;ratioP1;P2;durP2;ratioP2
46284;SDS011;32018;59.182;18.148;2023-04-23T00:00:47;0.60;;;0.47;;
46284;SDS011;32018;59.182;18.148;2023-04-23T00:03:12;1.10;;;0.60;;
46284;SDS011;32018;59.182;18.148;2023-04-23T00:05:38;1.00;;;0.68;;
46284;SDS011;32018;59.182;18.148;2023-04-23T00:08:06;0.77;;;0.50;;
46284;SDS011;32018;59.182;18.148;2023-04-23T00:10:31;0.93;;;0.70;;
46284;SDS011;32018;59.182;18.148;2023-04-23T00:12:57;1.02;;;0.50;;
46284;SDS011;32018;59.182;18.148;2023-04-23T00:15:22;1.15;;;0.40;;
46284;SDS011;32018;59.182;18.148;2023-04-23T00:17:47;0.68;;;0.68;;
46284;SDS011;32018;59.182;18.148;2023-04-23T00:20:13;0.60;;;0.60;;
46284;SDS011;32018;59.182;18.148;2023-04-23T00:22:38;1.35;;;0.68;;
46284;SDS011;32018;59.182;18.148;2023-04-23T00:25:05;0.63;;;0.57;;
46284;SDS011;32018;59.182;18.148;2023-04-23T00:27:30;0.57;;;0.50;;
46284;SDS011;32018;59.182;18.148;2023-04-23T00:29:55;0.95;;;0.57;;
46284;SDS011;32018;59.182;18.148;2023-04-23T00:32:20;0.97;;;0.50;;
46284;SDS011;32018;59.182;18.148;2023-04-23T00:34:46;0.60;;;0.60;;
46284;SDS011;32018;59.182;18.148;2023-04-23T00:37:13;0.50;;;0.40;;
46284;SDS011;32018;59.182;18.148;2023-04-23T00:39:38;0.60;;;0.50;;
46284;SDS011;32018;59.182;18.148;2023-04-23T00:42:04;1.00;;;0.60;;
46284;SDS011;32018;59.182;18.148;2023-04-23T00:44:35;0.50;;;0.50;;
46284;SDS011;32018;59.182;18.148;2023-04-23T00:47:01;0.50;;;0.50;;
46284;SDS011;32018;59.182;18.148;2023-04-23T00:49:26;0.60;;;0.50;;
46284;SDS011;32018;59.182;18.148;2023-04-23T00:51:52;1.00;;;0.60;;
46284;SDS011;32018;59.182;18.148;2023-04-23T00:54:17;0.57;;;0.50;;
46284;SDS011;32018;59.182;18.148;2023-04-23T00:56:43;0.53;;;0.50;;
46284;SDS011;32018;59.182;18.148;2023-04-23T00:59:08;0.60;;;0.60;;
46284;SDS011;32018;59.182;18.148;2023-04-23T01:01:33;0.65;;;0.50;;
46284;SDS011;32018;59.182;18.148;2023-04-23T01:03:59;1.08;;;0.60;;
46284;SDS011;32018;59.182;18.148;2023-04-23T01:06:25;0.80;;;0.47;;
46284;SDS011;32018;59.182;18.148;2023-04-23T01:08:52;0.82;;;0.65;;
46284;SDS011;32018;59.182;18.148;2023-04-23T01:11:17;0.77;;;0.77;;
46284;SDS011;32018;59.182;18.148;2023-04-23T01:13:43;0.80;;;0.60;;
46284;SDS011;32018;59.182;18.148;2023-04-23T01:16:09;0.77;;;0.55;;
46284;SDS011;32018;59.182;18.148;2023-04-23T01:18:35;0.50;;;0.50;;
46284;SDS011;32018;59.182;18.148;2023-04-23T01:21:00;0.60;;;0.60;;
46284;SDS011;32018;59.182;18.148;2023-04-23T01:23:26;1.25;;;0.50;;
46284;SDS011;32018;59.182;18.148;2023-04-23T01:25:52;0.95;;;0.65;;
46284;SDS011;32018;59.182;18.148;2023-04-23T01:28:17;0.75;;;0.52;;
46284;SDS011;32018;59.182;18.148;2023-04-23T01:30:43;0.63;;;0.57;;
46284;SDS011;32018;59.182;18.148;2023-04-23T01:33:09;1.63;;;0.60;;
46284;SDS011;32018;59.182;18.148;2023-04-23T01:35:35;0.60;;;0.50;;
46284;SDS011;32018;59.182;18.148;2023-04-23T01:38:01;0.73;;;0.60;;
46284;SDS011;32018;59.182;18.148;2023-04-23T01:40:26;0.68;;;0.50;;
46284;SDS011;32018;59.182;18.148;2023-04-23T01:42:52;1.00;;;0.70;;
46284;SDS011;32018;59.182;18.148;2023-04-23T01:45:17;1.42;;;0.80;;
46284;SDS011;32018;59.182;18.148;2023-04-23T01:47:45;0.63;;;0.60;;
46284;SDS011;32018;59.182;18.148;2023-04-23T01:50:11;0.60;;;0.60;;
46284;SDS011;32018;59.182;18.148;2023-04-23T01:52:36;0.60;;;0.60;;
46284;SDS011;32018;59.182;18.148;2023-04-23T01:55:02;0.60;;;0.57;;
46284;SDS011;32018;59.182;18.148;2023-04-23T01:57:27;0.55;;;0.52;;
46284;SDS011;32018;59.182;18.148;2023-04-23T01:59:57;0.60;;;0.60;;
46284;SDS011;32018;59.182;18.148;2023-04-23T02:02:25;0.90;;;0.70;;
46284;SDS011;32018;59.182;18.148;2023-04-23T02:04:50;1.20;;;0.50;;
46284;SDS011;32018;59.182;18.148;2023-04-23T02:07:17;1.70;;;0.60;;
46284;SDS011;32018;59.182;18.148;2023-04-23T02:09:42;0.82;;;0.63;;
46284;SDS011;32018;59.182;18.148;2023-04-23T02:12:07;0.70;;;0.67;;
46284;SDS011;32018;59.182;18.148;2023-04-23T02:14:32;0.50;;;0.47;;
46284;SDS011;32018;59.182;18.148;2023-04-23T02:16:58;0.52;;;0.40;;
46284;SDS011;32018;59.182;18.148;2023-04-23T02:19:23;1.10;;;0.70;;
46284;SDS011;32018;59.182;18.148;2023-04-23T02:21:48;0.77;;;0.50;;
46284;SDS011;32018;59.182;18.148;2023-04-23T02:24:13;0.70;;;0.65;;
46284;SDS011;32018;59.182;18.148;2023-04-23T02:26:39;0.65;;;0.57;;
46284;SDS011;32018;59.182;18.148;2023-04-23T02:29:04;0.50;;;0.50;;
46284;SDS011;32018;59.182;18.148;2023-04-23T02:31:29;0.85;;;0.70;;
46284;SDS011;32018;59.182;18.148;2023-04-23T02:33:54;1.88;;;0.60;;
46284;SDS011;32018;59.182;18.148;2023-04-23T02:36:20;1.00;;;0.50;;
46284;SDS011;32018;59.182;18.148;2023-04-23T02:38:45;0.90;;;0.55;;
46284;SDS011;32018;59.182;18.148;2023-04-23T02:41:12;1.08;;;0.60;;
46284;SDS011;32018;59.182;18.148;2023-04-23T02:43:37;0.77;;;0.60;;
46284;SDS011;32018;59.182;18.148;2023-04-23T02:46:03;0.83;;;0.50;;
46284;SDS011;32018;59.182;18.148;2023-04-23T02:48:33;2.05;;;0.70;;
46284;SDS011;32018;59.182;18.148;2023-04-23T02:50:58;1.58;;;0.80;;
46284;SDS011;32018;59.182;18.148;2023-04-23T02:53:24;2.38;;;0.82;;
46284;SDS011;32018;59.182;18.148;2023-04-23T02:55:49;1.48;;;0.90;;
46284;SDS011;32018;59.182;18.148;2023-04-23T02:58:14;1.10;;;0.40;;
46284;SDS011;32018;59.182;18.148;2023-04-23T03:00:40;0.52;;;0.52;;
46284;SDS011;32018;59.182;18.148;2023-04-23T03:03:05;0.85;;;0.52;;
46284;SDS011;32018;59.182;18.148;2023-04-23T03:05:30;1.23;;;0.90;;
46284;SDS011;32018;59.182;18.148;2023-04-23T03:07:55;2.57;;;1.10;;
46284;SDS011;32018;59.182;18.148;2023-04-23T03:10:21;1.43;;;0.83;;
46284;SDS011;32018;59.182;18.148;2023-04-23T03:12:46;1.17;;;0.63;;
46284;SDS011;32018;59.182;18.148;2023-04-23T03:15:11;0.88;;;0.50;;
46284;SDS011;32018;59.182;18.148;2023-04-23T03:17:37;0.77;;;0.50;;
46284;SDS011;32018;59.182;18.148;2023-04-23T03:20:02;0.80;;;0.50;;
46284;SDS011;32018;59.182;18.148;2023-04-23T03:22:27;0.70;;;0.60;;
46284;SDS011;32018;59.182;18.148;2023-04-23T03:24:53;3.47;;;1.37;;
46284;SDS011;32018;59.182;18.148;2023-04-23T03:27:18;0.82;;;0.60;;
46284;SDS011;32018;59.182;18.148;2023-04-23T03:29:43;0.77;;;0.50;;
46284;SDS011;32018;59.182;18.148;2023-04-23T03:32:09;0.68;;;0.60;;
46284;SDS011;32018;59.182;18.148;2023-04-23T03:34:34;1.17;;;0.57;;
46284;SDS011;32018;59.182;18.148;2023-04-23T03:36:59;1.20;;;1.00;;
46284;SDS011;32018;59.182;18.148;2023-04-23T03:39:24;1.40;;;0.63;;
46284;SDS011;32018;59.182;18.148;2023-04-23T03:41:50;1.43;;;0.63;;
46284;SDS011;32018;59.182;18.148;2023-04-23T03:44:15;1.33;;;0.60;;
46284;SDS011;32018;59.182;18.148;2023-04-23T03:46:40;0.63;;;0.63;;
46284;SDS011;32018;59.182;18.148;2023-04-23T03:49:05;0.93;;;0.65;;
46284;SDS011;32018;59.182;18.148;2023-04-23T03:51:30;1.03;;;0.60;;
46284;SDS011;32018;59.182;18.148;2023-04-23T03:53:56;0.60;;;0.60;;
46284;SDS011;32018;59.182;18.148;2023-04-23T03:56:21;0.70;;;0.60;;
46284;SDS011;32018;59.182;18.148;2023-04-23T03:58:46;1.30;;;0.60;;
46284;SDS011;32018;59.182;18.148;2023-04-23T04:01:12;1.30;;;0.70;;
46284;SDS011;32018;59.182;18.148;2023-04-23T04:03:37;4.20;;;0.90;;
46284;SDS011;32018;59.182;18.148;2023-04-23T04:06:02;0.50;;;0.50;;
46284;SDS011;32018;59.182;18.148;2023-04-23T04:08:27;0.50;;;0.50;;
46284;SDS011;32018;59.182;18.148;2023-04-23T04:10:53;0.98;;;0.70;;
46284;SDS011;32018;59.182;18.148;2023-04-23T04:13:19;2.05;;;0.70;;
46284;SDS011;32018;59.182;18.148;2023-04-23T04:15:44;0.70;;;0.50;;
46284;SDS011;32018;59.182;18.148;2023-04-23T04:18:09;0.63;;;0.60;;
46284;SDS011;32018;59.182;18.148;2023-04-23T04:20:35;33.60;;;3.67;;
46284;SDS011;32018;59.182;18.148;2023-04-23T04:23:00;4.70;;;1.10;;
46284;SDS011;32018;59.182;18.148;2023-04-23T04:25:25;1.23;;;0.60;;
46284;SDS011;32018;59.182;18.148;2023-04-23T04:27:52;0.95;;;0.60;;
46284;SDS011;32018;59.182;18.148;2023-04-23T04:30:17;6.13;;;1.23;;
46284;SDS011;32018;59.182;18.148;2023-04-23T04:32:43;2.10;;;0.87;;
46284;SDS011;32018;59.182;18.148;2023-04-23T04:35:09;7.72;;;1.02;;
46284;SDS011;32018;59.182;18.148;2023-04-23T04:37:36;1.25;;;0.65;;
46284;SDS011;32018;59.182;18.148;2023-04-23T04:40:02;2.45;;;0.73;;
46284;SDS011;32018;59.182;18.148;2023-04-23T04:42:28;2.17;;;0.80;;
46284;SDS011;32018;59.182;18.148;2023-04-23T04:44:53;0.87;;;0.53;;
46284;SDS011;32018;59.182;18.148;2023-04-23T04:47:18;3.70;;;1.17;;
46284;SDS011;32018;59.182;18.148;2023-04-23T04:49:43;1.75;;;0.73;;
46284;SDS011;32018;59.182;18.148;2023-04-23T04:52:09;7.53;;;0.80;;
46284;SDS011;32018;59.182;18.148;2023-04-23T04:54:35;2.03;;;0.73;;
46284;SDS011;32018;59.182;18.148;2023-04-23T04:57:00;3.90;;;0.88;;
46284;SDS011;32018;59.182;18.148;2023-04-23T04:59:26;8.45;;;0.90;;
46284;SDS011;32018;59.182;18.148;2023-04-23T05:01:51;5.40;;;1.50;;
46284;SDS011;32018;59.182;18.148;2023-04-23T05:04:17;2.95;;;0.80;;
46284;SDS011;32018;59.182;18.148;2023-04-23T05:06:42;2.93;;;0.90;;
46284;SDS011;32018;59.182;18.148;2023-04-23T05:09:07;3.17;;;1.03;;
46284;SDS011;32018;59.182;18.148;2023-04-23T05:11:32;10.13;;;1.48;;
46284;SDS011;32018;59.182;18.148;2023-04-23T05:13:59;3.05;;;0.80;;
46284;SDS011;32018;59.182;18.148;2023-04-23T05:16:24;1.90;;;1.10;;
46284;SDS011;32018;59.182;18.148;2023-04-23T05:18:50;3.50;;;1.40;;
46284;SDS011;32018;59.182;18.148;2023-04-23T05:21:16;2.80;;;0.88;;
46284;SDS011;32018;59.182;18.148;2023-04-23T05:23:41;1.15;;;0.70;;
46284;SDS011;32018;59.182;18.148;2023-04-23T05:26:06;1.45;;;0.80;;
46284;SDS011;32018;59.182;18.148;2023-04-23T05:28:32;2.38;;;0.90;;
46284;SDS011;32018;59.182;18.148;2023-04-23T05:30:57;1.70;;;0.80;;
46284;SDS011;32018;59.182;18.148;2023-04-23T05:33:22;11.98;;;1.88;;
46284;SDS011;32018;59.182;18.148;2023-04-23T05:35:48;0.80;;;0.80;;
46284;SDS011;32018;59.182;18.148;2023-04-23T05:38:13;1.70;;;0.75;;
46284;SDS011;32018;59.182;18.148;2023-04-23T05:40:38;2.50;;;1.20;;
46284;SDS011;32018;59.182;18.148;2023-04-23T05:43:03;0.77;;;0.73;;
46284;SDS011;32018;59.182;18.148;2023-04-23T05:45:29;22.00;;;2.22;;
46284;SDS011;32018;59.182;18.148;2023-04-23T05:47:54;2.45;;;1.08;;
46284;SDS011;32018;59.182;18.148;2023-04-23T05:50:19;2.53;;;0.93;;
46284;SDS011;32018;59.182;18.148;2023-04-23T05:52:45;2.20;;;1.27;;
46284;SDS011;32018;59.182;18.148;2023-04-23T05:55:10;0.95;;;0.75;;
46284;SDS011;32018;59.182;18.148;2023-04-23T05:57:36;0.70;;;0.70;;
46284;SDS011;32018;59.182;18.148;2023-04-23T06:00:02;1.35;;;0.88;;
46284;SDS011;32018;59.182;18.148;2023-04-23T06:02:27;3.20;;;0.75;;
46284;SDS011;32018;59.182;18.148;2023-04-23T06:04:53;3.05;;;1.30;;
46284;SDS011;32018;59.182;18.148;2023-04-23T06:07:18;2.78;;;1.40;;
46284;SDS011;32018;59.182;18.148;2023-04-23T06:09:43;1.10;;;0.70;;
46284;SDS011;32018;59.182;18.148;2023-04-23T06:12:09;2.47;;;1.00;;
46284;SDS011;32018;59.182;18.148;2023-04-23T06:14:35;2.63;;;1.00;;
46284;SDS011;32018;59.182;18.148;2023-04-23T06:17:00;0.93;;;0.85;;
46284;SDS011;32018;59.182;18.148;2023-04-23T06:19:25;2.53;;;0.90;;
46284;SDS011;32018;59.182;18.148;2023-04-23T06:21:51;0.98;;;0.70;;
46284;SDS011;32018;59.182;18.148;2023-04-23T06:24:17;1.48;;;0.90;;
46284;SDS011;32018;59.182;18.148;2023-04-23T06:26:42;1.23;;;1.00;;
46284;SDS011;32018;59.182;18.148;2023-04-23T06:29:07;1.50;;;1.10;;
46284;SDS011;32018;59.182;18.148;2023-04-23T06:31:32;2.72;;;1.00;;
46284;SDS011;32018;59.182;18.148;2023-04-23T06:33:58;2.60;;;0.70;;
46284;SDS011;32018;59.182;18.148;2023-04-23T06:36:23;1.48;;;0.90;;
46284;SDS011;32018;59.182;18.148;2023-04-23T06:38:48;1.77;;;0.70;;
46284;SDS011;32018;59.182;18.148;2023-04-23T06:41:14;1.63;;;1.00;;
46284;SDS011;32018;59.182;18.148;2023-04-23T06:43:39;2.45;;;0.82;;
46284;SDS011;32018;59.182;18.148;2023-04-23T06:46:04;1.50;;;0.60;;
46284;SDS011;32018;59.182;18.148;2023-04-23T06:48:30;6.30;;;0.77;;
46284;SDS011;32018;59.182;18.148;2023-04-23T06:50:56;1.80;;;0.80;;
46284;SDS011;32018;59.182;18.148;2023-04-23T06:53:21;3.03;;;0.88;;
46284;SDS011;32018;59.182;18.148;2023-04-23T06:55:47;7.83;;;1.20;;
46284;SDS011;32018;59.182;18.148;2023-04-23T06:58:13;1.50;;;0.70;;
46284;SDS011;32018;59.182;18.148;2023-04-23T07:00:39;0.60;;;0.60;;
46284;SDS011;32018;59.182;18.148;2023-04-23T07:03:04;2.10;;;0.70;;
46284;SDS011;32018;59.182;18.148;2023-04-23T07:05:30;1.17;;;0.70;;
46284;SDS011;32018;59.182;18.148;2023-04-23T07:07:55;4.73;;;0.80;;
46284;SDS011;32018;59.182;18.148;2023-04-23T07:10:20;1.33;;;0.55;;
46284;SDS011;32018;59.182;18.148;2023-04-23T07:12:45;1.13;;;0.70;;
46284;SDS011;32018;59.182;18.148;2023-04-23T07:15:11;2.28;;;0.80;;
46284;SDS011;32018;59.182;18.148;2023-04-23T07:17:36;2.22;;;0.70;;
46284;SDS011;32018;59.182;18.148;2023-04-23T07:20:01;3.77;;;0.80;;
46284;SDS011;32018;59.182;18.148;2023-04-23T07:22:30;3.83;;;0.98;;
46284;SDS011;32018;59.182;18.148;2023-04-23T07:24:55;2.28;;;0.63;;
46284;SDS011;32018;59.182;18.148;2023-04-23T07:27:21;1.17;;;0.80;;
46284;SDS011;32018;59.182;18.148;2023-04-23T07:29:46;2.60;;;0.73;;
46284;SDS011;32018;59.182;18.148;2023-04-23T07:32:11;0.80;;;0.80;;
46284;SDS011;32018;59.182;18.148;2023-04-23T07:34:37;3.10;;;0.80;;
46284;SDS011;32018;59.182;18.148;2023-04-23T07:37:02;0.70;;;0.70;;
46284;SDS011;32018;59.182;18.148;2023-04-23T07:39:28;1.88;;;0.70;;
46284;SDS011;32018;59.182;18.148;2023-04-23T07:41:53;1.27;;;0.80;;
46284;SDS011;32018;59.182;18.148;2023-04-23T07:44:18;1.05;;;0.60;;
46284;SDS011;32018;59.182;18.148;2023-04-23T07:46:44;0.98;;;0.75;;
46284;SDS011;32018;59.182;18.148;2023-04-23T07:49:09;2.55;;;0.80;;
46284;SDS011;32018;59.182;18.148;2023-04-23T07:51:34;1.67;;;0.90;;
46284;SDS011;32018;59.182;18.148;2023-04-23T07:54:00;2.95;;;0.60;;
46284;SDS011;32018;59.182;18.148;2023-04-23T07:56:25;1.90;;;0.75;;
46284;SDS011;32018;59.182;18.148;2023-04-23T07:58:50;0.95;;;0.70;;
46284;SDS011;32018;59.182;18.148;2023-04-23T08:01:17;0.75;;;0.68;;
46284;SDS011;32018;59.182;18.148;2023-04-23T08:03:43;4.03;;;3.30;;
46284;SDS011;32018;59.182;18.148;2023-04-23T08:06:09;1.80;;;0.87;;
46284;SDS011;32018;59.182;18.148;2023-04-23T08:08:35;7.50;;;0.98;;
46284;SDS011;32018;59.182;18.148;2023-04-23T08:11:00;2.50;;;1.40;;
46284;SDS011;32018;59.182;18.148;2023-04-23T08:13:25;1.90;;;0.93;;
46284;SDS011;32018;59.182;18.148;2023-04-23T08:15:50;2.97;;;1.00;;
46284;SDS011;32018;59.182;18.148;2023-04-23T08:18:16;2.35;;;0.73;;
46284;SDS011;32018;59.182;18.148;2023-04-23T08:20:41;1.85;;;0.93;;
46284;SDS011;32018;59.182;18.148;2023-04-23T08:23:06;1.27;;;0.70;;
46284;SDS011;32018;59.182;18.148;2023-04-23T08:25:31;2.73;;;1.03;;
46284;SDS011;32018;59.182;18.148;2023-04-23T08:27:57;1.30;;;0.93;;
46284;SDS011;32018;59.182;18.148;2023-04-23T08:30:22;2.35;;;1.00;;
46284;SDS011;32018;59.182;18.148;2023-04-23T08:32:48;1.25;;;0.80;;
46284;SDS011;32018;59.182;18.148;2023-04-23T08:35:13;1.45;;;0.88;;
46284;SDS011;32018;59.182;18.148;2023-04-23T08:37:39;1.00;;;0.80;;
46284;SDS011;32018;59.182;18.148;2023-04-23T08:40:04;20.55;;;1.05;;
46284;SDS011;32018;59.182;18.148;2023-04-23T08:44:56;7.30;;;0.73;;
46284;SDS011;32018;59.182;18.148;2023-04-23T08:47:23;10.75;;;0.80;;
46284;SDS011;32018;59.182;18.148;2023-04-23T08:49:48;0.55;;;0.55;;
46284;SDS011;32018;59.182;18.148;2023-04-23T08:52:18;8.52;;;0.85;;
46284;SDS011;32018;59.182;18.148;2023-04-23T08:54:51;8.20;;;0.80;;
46284;SDS011;32018;59.182;18.148;2023-04-23T08:57:17;2.75;;;1.40;;
46284;SDS011;32018;59.182;18.148;2023-04-23T08:59:43;2.88;;;1.15;;
46284;SDS011;32018;59.182;18.148;2023-04-23T09:02:08;9.18;;;1.00;;
46284;SDS011;32018;59.182;18.148;2023-04-23T09:04:34;3.90;;;2.75;;
46284;SDS011;32018;59.182;18.148;2023-04-23T09:07:00;14.05;;;1.65;;
46284;SDS011;32018;59.182;18.148;2023-04-23T09:09:26;2.05;;;0.80;;
46284;SDS011;32018;59.182;18.148;2023-04-23T09:11:52;22.73;;;2.05;;
46284;SDS011;32018;59.182;18.148;2023-04-23T09:14:17;1.60;;;0.80;;
46284;SDS011;32018;59.182;18.148;2023-04-23T09:16:43;19.08;;;2.25;;
46284;SDS011;32018;59.182;18.148;2023-04-23T09:19:08;1.70;;;1.20;;
46284;SDS011;32018;59.182;18.148;2023-04-23T09:21:34;5.53;;;1.33;;
46284;SDS011;32018;59.182;18.148;2023-04-23T09:24:03;2.55;;;1.17;;
46284;SDS011;32018;59.182;18.148;2023-04-23T09:26:28;3.08;;;0.90;;
46284;SDS011;32018;59.182;18.148;2023-04-23T09:28:54;1.70;;;0.85;;
46284;SDS011;32018;59.182;18.148;2023-04-23T09:31:22;6.63;;;1.43;;
46284;SDS011;32018;59.182;18.148;2023-04-23T09:33:51;4.97;;;1.35;;
46284;SDS011;32018;59.182;18.148;2023-04-23T09:36:19;13.35;;;1.17;;
46284;SDS011;32018;59.182;18.148;2023-04-23T09:38:44;4.93;;;1.02;;
46284;SDS011;32018;59.182;18.148;2023-04-23T09:41:22;19.45;;;2.20;;
46284;SDS011;32018;59.182;18.148;2023-04-23T09:43:48;5.80;;;0.82;;
46284;SDS011;32018;59.182;18.148;2023-04-23T09:46:13;7.23;;;1.27;;
46284;SDS011;32018;59.182;18.148;2023-04-23T09:48:41;5.60;;;2.17;;
46284;SDS011;32018;59.182;18.148;2023-04-23T09:51:07;7.00;;;1.23;;
46284;SDS011;32018;59.182;18.148;2023-04-23T09:53:39;7.80;;;0.93;;
46284;SDS011;32018;59.182;18.148;2023-04-23T09:56:05;4.05;;;1.30;;
46284;SDS011;32018;59.182;18.148;2023-04-23T09:58:31;3.92;;;1.48;;
46284;SDS011;32018;59.182;18.148;2023-04-23T10:01:04;7.45;;;3.30;;
46284;SDS011;32018;59.182;18.148;2023-04-23T10:03:30;9.15;;;2.25;;
46284;SDS011;32018;59.182;18.148;2023-04-23T10:05:55;1.70;;;1.17;;
46284;SDS011;32018;59.182;18.148;2023-04-23T10:08:22;1.45;;;0.90;;
46284;SDS011;32018;59.182;18.148;2023-04-23T10:10:48;2.97;;;0.93;;
46284;SDS011;32018;59.182;18.148;2023-04-23T10:13:13;7.13;;;1.98;;
46284;SDS011;32018;59.182;18.148;2023-04-23T10:15:38;5.07;;;1.73;;
46284;SDS011;32018;59.182;18.148;2023-04-23T10:18:03;3.35;;;0.98;;
46284;SDS011;32018;59.182;18.148;2023-04-23T10:20:29;6.03;;;1.63;;
46284;SDS011;32018;59.182;18.148;2023-04-23T10:22:54;4.45;;;1.38;;
46284;SDS011;32018;59.182;18.148;2023-04-23T10:25:21;3.75;;;3.20;;
46284;SDS011;32018;59.182;18.148;2023-04-23T10:27:48;6.85;;;3.38;;
46284;SDS011;32018;59.182;18.148;2023-04-23T10:30:13;3.60;;;1.65;;
46284;SDS011;32018;59.182;18.148;2023-04-23T10:32:39;2.40;;;1.13;;
46284;SDS011;32018;59.182;18.148;2023-04-23T10:35:05;4.00;;;0.90;;
46284;SDS011;32018;59.182;18.148;2023-04-23T10:37:31;3.95;;;0.80;;
46284;SDS011;32018;59.182;18.148;2023-04-23T10:39:59;2.25;;;1.27;;
46284;SDS011;32018;59.182;18.148;2023-04-23T10:42:25;3.20;;;1.20;;
46284;SDS011;32018;59.182;18.148;2023-04-23T10:44:54;2.30;;;1.17;;
46284;SDS011;32018;59.182;18.148;2023-04-23T10:47:20;2.63;;;1.15;;
46284;SDS011;32018;59.182;18.148;2023-04-23T10:49:47;2.22;;;1.55;;
46284;SDS011;32018;59.182;18.148;2023-04-23T10:52:13;5.30;;;1.77;;
46284;SDS011;32018;59.182;18.148;2023-04-23T10:54:39;3.85;;;2.35;;
46284;SDS011;32018;59.182;18.148;2023-04-23T10:57:06;27.65;;;4.60;;
46284;SDS011;32018;59.182;18.148;2023-04-23T10:59:38;8.23;;;6.57;;
46284;SDS011;32018;59.182;18.148;2023-04-23T11:02:07;3.95;;;2.00;;
46284;SDS011;32018;59.182;18.148;2023-04-23T11:04:34;6.65;;;2.97;;
46284;SDS011;32018;59.182;18.148;2023-04-23T11:07:06;3.05;;;1.50;;
46284;SDS011;32018;59.182;18.148;2023-04-23T11:12:00;6.93;;;1.63;;
46284;SDS011;32018;59.182;18.148;2023-04-23T11:14:35;4.60;;;1.33;;
46284;SDS011;32018;59.182;18.148;2023-04-23T11:17:04;3.33;;;1.20;;
46284;SDS011;32018;59.182;18.148;2023-04-23T11:19:35;7.40;;;1.30;;
46284;SDS011;32018;59.182;18.148;2023-04-23T11:24:36;3.58;;;1.25;;
46284;SDS011;32018;59.182;18.148;2023-04-23T11:27:05;3.42;;;1.30;;
46284;SDS011;32018;59.182;18.148;2023-04-23T11:29:31;10.63;;;1.27;;
46284;SDS011;32018;59.182;18.148;2023-04-23T11:31:56;1.90;;;1.05;;
46284;SDS011;32018;59.182;18.148;2023-04-23T11:34:21;2.72;;;1.27;;
46284;SDS011;32018;59.182;18.148;2023-04-23T11:36:47;3.42;;;1.45;;
46284;SDS011;32018;59.182;18.148;2023-04-23T11:39:13;4.15;;;1.33;;
46284;SDS011;32018;59.182;18.148;2023-04-23T11:41:38;3.08;;;1.20;;
46284;SDS011;32018;59.182;18.148;2023-04-23T11:44:03;6.55;;;1.30;;
46284;SDS011;32018;59.182;18.148;2023-04-23T11:46:30;7.80;;;6.05;;
46284;SDS011;32018;59.182;18.148;2023-04-23T11:48:55;3.67;;;2.22;;
46284;SDS011;32018;59.182;18.148;2023-04-23T11:51:27;5.70;;;3.50;;
46284;SDS011;32018;59.182;18.148;2023-04-23T11:53:52;3.22;;;1.83;;
46284;SDS011;32018;59.182;18.148;2023-04-23T11:56:17;1.38;;;1.08;;
46284;SDS011;32018;59.182;18.148;2023-04-23T11:58:44;4.00;;;1.10;;
46284;SDS011;32018;59.182;18.148;2023-04-23T12:01:09;3.42;;;1.92;;
46284;SDS011;32018;59.182;18.148;2023-04-23T12:03:35;2.40;;;1.35;;
46284;SDS011;32018;59.182;18.148;2023-04-23T12:06:00;21.17;;;2.10;;
46284;SDS011;32018;59.182;18.148;2023-04-23T12:08:30;1.80;;;1.00;;
46284;SDS011;32018;59.182;18.148;2023-04-23T12:10:59;2.75;;;1.40;;
46284;SDS011;32018;59.182;18.148;2023-04-23T12:13:26;1.55;;;0.70;;
46284;SDS011;32018;59.182;18.148;2023-04-23T12:16:02;5.15;;;4.68;;
46284;SDS011;32018;59.182;18.148;2023-04-23T12:19:01;6.05;;;2.00;;
46284;SDS011;32018;59.182;18.148;2023-04-23T12:21:19;2.17;;;1.90;;
46284;SDS011;32018;59.182;18.148;2023-04-23T12:23:44;3.70;;;1.45;;
46284;SDS011;32018;59.182;18.148;2023-04-23T12:26:15;4.85;;;1.90;;
46284;SDS011;32018;59.182;18.148;2023-04-23T12:31:17;3.10;;;2.45;;
46284;SDS011;32018;59.182;18.148;2023-04-23T12:33:42;3.92;;;1.73;;
46284;SDS011;32018;59.182;18.148;2023-04-23T12:36:09;5.60;;;1.40;;
46284;SDS011;32018;59.182;18.148;2023-04-23T12:38:35;2.08;;;1.30;;
46284;SDS011;32018;59.182;18.148;2023-04-23T12:41:00;3.03;;;1.15;;
46284;SDS011;32018;59.182;18.148;2023-04-23T12:43:25;4.20;;;2.15;;
46284;SDS011;32018;59.182;18.148;2023-04-23T12:45:51;7.18;;;1.73;;
46284;SDS011;32018;59.182;18.148;2023-04-23T12:48:17;3.05;;;1.13;;
46284;SDS011;32018;59.182;18.148;2023-04-23T12:50:43;2.47;;;1.88;;
46284;SDS011;32018;59.182;18.148;2023-04-23T12:53:08;2.53;;;1.63;;
46284;SDS011;32018;59.182;18.148;2023-04-23T12:55:34;2.75;;;1.38;;
46284;SDS011;32018;59.182;18.148;2023-04-23T12:57:59;4.70;;;1.80;;
46284;SDS011;32018;59.182;18.148;2023-04-23T13:00:25;5.25;;;1.58;;
46284;SDS011;32018;59.182;18.148;2023-04-23T13:02:50;2.78;;;1.63;;
46284;SDS011;32018;59.182;18.148;2023-04-23T13:05:15;3.23;;;1.20;;
46284;SDS011;32018;59.182;18.148;2023-04-23T13:07:40;1.48;;;1.30;;
46284;SDS011;32018;59.182;18.148;2023-04-23T13:10:06;3.08;;;1.58;;
46284;SDS011;32018;59.182;18.148;2023-04-23T13:12:32;2.72;;;1.50;;
46284;SDS011;32018;59.182;18.148;2023-04-23T13:14:57;1.70;;;1.40;;
46284;SDS011;32018;59.182;18.148;2023-04-23T13:17:23;12.02;;;3.00;;
46284;SDS011;32018;59.182;18.148;2023-04-23T13:19:50;2.72;;;1.20;;
46284;SDS011;32018;59.182;18.148;2023-04-23T13:22:15;2.60;;;1.40;;
46284;SDS011;32018;59.182;18.148;2023-04-23T13:24:40;3.53;;;1.67;;
46284;SDS011;32018;59.182;18.148;2023-04-23T13:27:05;3.57;;;1.53;;
46284;SDS011;32018;59.182;18.148;2023-04-23T13:29:30;2.97;;;1.50;;
46284;SDS011;32018;59.182;18.148;2023-04-23T13:31:56;4.22;;;2.40;;
46284;SDS011;32018;59.182;18.148;2023-04-23T13:34:22;2.22;;;1.35;;
46284;SDS011;32018;59.182;18.148;2023-04-23T13:36:47;2.78;;;1.75;;
46284;SDS011;32018;59.182;18.148;2023-04-23T13:39:12;2.78;;;2.38;;
46284;SDS011;32018;59.182;18.148;2023-04-23T13:41:38;3.83;;;2.90;;
46284;SDS011;32018;59.182;18.148;2023-04-23T13:44:03;1.98;;;1.67;;
46284;SDS011;32018;59.182;18.148;2023-04-23T13:46:29;4.55;;;1.98;;
46284;SDS011;32018;59.182;18.148;2023-04-23T13:48:54;3.72;;;1.90;;
46284;SDS011;32018;59.182;18.148;2023-04-23T13:51:20;5.70;;;5.10;;
46284;SDS011;32018;59.182;18.148;2023-04-23T13:53:45;1.73;;;1.50;;
46284;SDS011;32018;59.182;18.148;2023-04-23T13:56:11;2.93;;;1.53;;
46284;SDS011;32018;59.182;18.148;2023-04-23T13:58:36;5.43;;;1.60;;
46284;SDS011;32018;59.182;18.148;2023-04-23T14:01:01;3.92;;;2.30;;
46284;SDS011;32018;59.182;18.148;2023-04-23T14:03:28;1.63;;;1.40;;
46284;SDS011;32018;59.182;18.148;2023-04-23T14:05:53;3.17;;;2.75;;
46284;SDS011;32018;59.182;18.148;2023-04-23T14:08:18;5.80;;;2.67;;
46284;SDS011;32018;59.182;18.148;2023-04-23T14:10:44;6.07;;;2.17;;
46284;SDS011;32018;59.182;18.148;2023-04-23T14:13:09;5.85;;;2.70;;
46284;SDS011;32018;59.182;18.148;2023-04-23T14:15:34;2.95;;;2.38;;
46284;SDS011;32018;59.182;18.148;2023-04-23T14:18:00;6.80;;;2.05;;
46284;SDS011;32018;59.182;18.148;2023-04-23T14:20:25;1.70;;;1.60;;
46284;SDS011;32018;59.182;18.148;2023-04-23T14:22:54;4.75;;;3.20;;
46284;SDS011;32018;59.182;18.148;2023-04-23T14:26:03;5.13;;;4.63;;
46284;SDS011;32018;59.182;18.148;2023-04-23T14:28:21;12.82;;;5.88;;
46284;SDS011;32018;59.182;18.148;2023-04-23T14:30:47;6.38;;;5.20;;
46284;SDS011;32018;59.182;18.148;2023-04-23T14:33:12;6.27;;;5.57;;
46284;SDS011;32018;59.182;18.148;2023-04-23T14:35:38;11.63;;;10.67;;